N7DW KOPF-TNCM
Flight info
| Callsign | N7DW |
|---|---|
| Flight time | N/A |
| Altitude | 45000 |
| Route | HUSIL3 CAMIX DCT BITAC Y290 SLUGO |
| Aircraft | C750/M-SBDE3FGHRWXY/S |
Departure
| Time | 2026-04-26 14:09 |
|---|---|
| Airport | Miami-Opa Locka Executive Airport (KOPF) |
Arrival
| Time | N/A |
|---|---|
| Airport | Princess Juliana International Airport (TNCM) |
| Time | Latitude | Longitude | Altitude | Speed | Heading |
|---|---|---|---|---|---|
| 2026-04-26 13:46 | 25.90644 | -80.27608 | 16 ft | 0 kts | 122° |
| 2026-04-26 14:04 | 25.90644 | -80.27607 | 16 ft | 0 kts | 122° |
| 2026-04-26 14:04 | 25.90643 | -80.27607 | 16 ft | 0 kts | 141° |
| 2026-04-26 14:04 | 25.90641 | -80.27608 | 16 ft | 0 kts | 179° |
| 2026-04-26 14:04 | 25.90631 | -80.27623 | 16 ft | 6 kts | 251° |
| 2026-04-26 14:05 | 25.90636 | -80.27662 | 19 ft | 5 kts | 294° |
| 2026-04-26 14:05 | 25.90659 | -80.27707 | 18 ft | 7 kts | 295° |
| 2026-04-26 14:05 | 25.90634 | -80.27763 | 18 ft | 9 kts | 220° |
| 2026-04-26 14:05 | 25.90602 | -80.27821 | 21 ft | 8 kts | 280° |
| 2026-04-26 14:06 | 25.90627 | -80.27875 | 19 ft | 8 kts | 303° |
| 2026-04-26 14:06 | 25.90669 | -80.27950 | 19 ft | 15 kts | 299° |
| 2026-04-26 14:06 | 25.90723 | -80.28053 | 19 ft | 15 kts | 301° |
| 2026-04-26 14:06 | 25.90775 | -80.28148 | 19 ft | 14 kts | 301° |
| 2026-04-26 14:07 | 25.90826 | -80.28235 | 18 ft | 15 kts | 308° |
| 2026-04-26 14:07 | 25.90894 | -80.28349 | 16 ft | 20 kts | 302° |
| 2026-04-26 14:07 | 25.90970 | -80.28484 | 18 ft | 20 kts | 301° |
| 2026-04-26 14:07 | 25.91042 | -80.28614 | 16 ft | 19 kts | 301° |
| 2026-04-26 14:08 | 25.91088 | -80.28722 | 18 ft | 11 kts | 268° |
| 2026-04-26 14:08 | 25.91088 | -80.28782 | 19 ft | 6 kts | 253° |
| 2026-04-26 14:08 | 25.91044 | -80.28801 | 17 ft | 8 kts | 169° |
| 2026-04-26 14:08 | 25.90998 | -80.28753 | 15 ft | 13 kts | 122° |
| 2026-04-26 14:09 | 25.90811 | -80.28422 | 15 ft | 105 kts | 124° |
| 2026-04-26 14:09 | 25.90291 | -80.27485 | 92 ft | 164 kts | 123° |
| 2026-04-26 14:09 | 25.89636 | -80.26360 | 622 ft | 184 kts | 123° |
| 2026-04-26 14:09 | 25.88906 | -80.25116 | 1333 ft | 191 kts | 124° |
| 2026-04-26 14:10 | 25.88178 | -80.23917 | 2331 ft | 187 kts | 126° |
| 2026-04-26 14:10 | 25.87423 | -80.22697 | 3035 ft | 198 kts | 122° |
| 2026-04-26 14:10 | 25.86923 | -80.21212 | 3590 ft | 216 kts | 99° |
| 2026-04-26 14:10 | 25.87132 | -80.19532 | 4367 ft | 217 kts | 76° |
| 2026-04-26 14:11 | 25.87931 | -80.16432 | 6374 ft | 208 kts | 74° |
| 2026-04-26 14:11 | 25.88323 | -80.14881 | 7308 ft | 210 kts | 74° |
| 2026-04-26 14:11 | 25.88722 | -80.13301 | 8256 ft | 214 kts | 74° |
| 2026-04-26 14:12 | 25.89122 | -80.11701 | 9213 ft | 217 kts | 74° |
| 2026-04-26 14:12 | 25.89522 | -80.10081 | 10158 ft | 217 kts | 74° |
| 2026-04-26 14:12 | 25.89906 | -80.08489 | 11068 ft | 216 kts | 74° |
| 2026-04-26 14:12 | 25.90285 | -80.06883 | 11955 ft | 214 kts | 73° |
| 2026-04-26 14:13 | 25.91019 | -80.03637 | 13561 ft | 217 kts | 74° |
| 2026-04-26 14:13 | 25.91198 | -80.01970 | 14200 ft | 225 kts | 99° |
| 2026-04-26 14:13 | 25.90594 | -80.00359 | 14914 ft | 226 kts | 118° |
| 2026-04-26 14:14 | 25.89846 | -79.98839 | 15701 ft | 224 kts | 118° |
| 2026-04-26 14:14 | 25.89105 | -79.97332 | 16429 ft | 220 kts | 118° |
| 2026-04-26 14:14 | 25.88374 | -79.95850 | 17098 ft | 224 kts | 118° |
| 2026-04-26 14:14 | 25.87626 | -79.94334 | 17755 ft | 223 kts | 118° |
| 2026-04-26 14:15 | 25.86867 | -79.92805 | 18330 ft | 228 kts | 118° |
| 2026-04-26 14:15 | 25.86100 | -79.91264 | 18886 ft | 230 kts | 118° |
| 2026-04-26 14:15 | 25.85309 | -79.89688 | 19472 ft | 234 kts | 118° |
| 2026-04-26 14:15 | 25.84511 | -79.88112 | 20118 ft | 235 kts | 118° |
| 2026-04-26 14:16 | 25.83689 | -79.86505 | 20582 ft | 244 kts | 118° |
| 2026-04-26 14:16 | 25.82803 | -79.84786 | 20747 ft | 270 kts | 118° |
| 2026-04-26 14:16 | 25.81824 | -79.82879 | 20915 ft | 297 kts | 118° |
| 2026-04-26 14:16 | 25.80766 | -79.80803 | 21057 ft | 320 kts | 118° |
| 2026-04-26 14:17 | 25.79645 | -79.78595 | 21110 ft | 340 kts | 118° |
| 2026-04-26 14:17 | 25.78439 | -79.76212 | 21166 ft | 364 kts | 118° |
| 2026-04-26 14:17 | 25.77172 | -79.73693 | 21214 ft | 386 kts | 118° |
| 2026-04-26 14:17 | 25.75825 | -79.71005 | 21263 ft | 410 kts | 118° |
| 2026-04-26 14:18 | 25.74412 | -79.68174 | 21304 ft | 428 kts | 118° |
| 2026-04-26 14:18 | 25.72948 | -79.65231 | 21438 ft | 441 kts | 118° |
| 2026-04-26 14:18 | 25.71464 | -79.62242 | 22110 ft | 443 kts | 118° |
| 2026-04-26 14:18 | 25.69970 | -79.59221 | 22652 ft | 449 kts | 117° |
| 2026-04-26 14:19 | 25.68618 | -79.56085 | 23198 ft | 453 kts | 112° |
| 2026-04-26 14:19 | 25.67406 | -79.52852 | 23491 ft | 457 kts | 110° |
| 2026-04-26 14:19 | 25.66282 | -79.49557 | 23714 ft | 460 kts | 106° |
| 2026-04-26 14:19 | 25.65429 | -79.46141 | 24363 ft | 460 kts | 102° |
| 2026-04-26 14:20 | 25.64588 | -79.42710 | 24896 ft | 465 kts | 104° |
| 2026-04-26 14:20 | 25.63486 | -79.39317 | 25421 ft | 470 kts | 111° |
| 2026-04-26 14:20 | 25.62113 | -79.36018 | 25973 ft | 471 kts | 115° |
| 2026-04-26 14:20 | 25.60654 | -79.32731 | 26349 ft | 477 kts | 115° |
| 2026-04-26 14:21 | 25.59330 | -79.29360 | 26887 ft | 477 kts | 111° |
| 2026-04-26 14:21 | 25.58130 | -79.25916 | 27007 ft | 482 kts | 110° |
| 2026-04-26 14:21 | 25.56852 | -79.22474 | 27534 ft | 483 kts | 113° |
| 2026-04-26 14:21 | 25.55478 | -79.19076 | 28056 ft | 486 kts | 114° |
| 2026-04-26 14:22 | 25.54117 | -79.15635 | 28450 ft | 487 kts | 113° |
| 2026-04-26 14:22 | 25.52818 | -79.12155 | 28562 ft | 492 kts | 112° |
| 2026-04-26 14:22 | 25.51522 | -79.08697 | 29109 ft | 491 kts | 113° |
| 2026-04-26 14:22 | 25.50159 | -79.05207 | 29387 ft | 496 kts | 114° |
| 2026-04-26 14:23 | 25.48779 | -79.01703 | 29711 ft | 498 kts | 114° |
| 2026-04-26 14:23 | 25.47425 | -78.98170 | 30219 ft | 499 kts | 113° |
| 2026-04-26 14:23 | 25.46073 | -78.94618 | 30612 ft | 502 kts | 113° |
| 2026-04-26 14:23 | 25.44694 | -78.91058 | 31032 ft | 505 kts | 114° |
| 2026-04-26 14:24 | 25.43299 | -78.87488 | 31374 ft | 506 kts | 114° |
| 2026-04-26 14:24 | 25.40526 | -78.80303 | 31743 ft | 508 kts | 114° |
| 2026-04-26 14:25 | 25.37728 | -78.73101 | 31832 ft | 509 kts | 114° |
| 2026-04-26 14:25 | 25.36324 | -78.69497 | 31952 ft | 513 kts | 114° |
| 2026-04-26 14:25 | 25.34918 | -78.65872 | 32432 ft | 513 kts | 114° |
| 2026-04-26 14:25 | 25.33511 | -78.62248 | 32678 ft | 515 kts | 114° |
| 2026-04-26 14:26 | 25.32088 | -78.58601 | 32826 ft | 518 kts | 115° |
| 2026-04-26 14:26 | 25.30657 | -78.54938 | 33273 ft | 519 kts | 115° |
| 2026-04-26 14:26 | 25.29229 | -78.51277 | 33499 ft | 521 kts | 115° |
| 2026-04-26 14:26 | 25.27791 | -78.47591 | 33793 ft | 522 kts | 115° |
| 2026-04-26 14:27 | 25.26347 | -78.43892 | 34005 ft | 526 kts | 115° |
| 2026-04-26 14:27 | 25.24910 | -78.40180 | 34393 ft | 527 kts | 115° |
| 2026-04-26 14:27 | 25.23474 | -78.36443 | 34669 ft | 530 kts | 115° |
| 2026-04-26 14:28 | 25.20576 | -78.28974 | 34707 ft | 529 kts | 115° |
| 2026-04-26 14:28 | 25.17697 | -78.21560 | 34849 ft | 524 kts | 115° |
| 2026-04-26 14:28 | 25.16261 | -78.17859 | 34953 ft | 525 kts | 115° |
| 2026-04-26 14:29 | 25.14638 | -78.14262 | 35055 ft | 524 kts | 122° |
| 2026-04-26 14:29 | 25.12614 | -78.10942 | 35156 ft | 521 kts | 128° |
| 2026-04-26 14:29 | 25.10419 | -78.07783 | 35489 ft | 511 kts | 130° |
| 2026-04-26 14:29 | 25.08311 | -78.04704 | 35857 ft | 506 kts | 128° |
| 2026-04-26 14:30 | 25.06297 | -78.01471 | 35935 ft | 512 kts | 126° |
| 2026-04-26 14:30 | 25.04291 | -77.98222 | 36268 ft | 512 kts | 127° |
| 2026-04-26 14:30 | 25.02908 | -77.96113 | 36412 ft | 514 kts | 129° |
| 2026-04-26 14:30 | 25.00773 | -77.92965 | 36607 ft | 516 kts | 129° |
| 2026-04-26 14:31 | 24.98663 | -77.89745 | 37012 ft | 517 kts | 128° |
| 2026-04-26 14:31 | 24.96600 | -77.86489 | 37343 ft | 519 kts | 127° |
| 2026-04-26 14:31 | 24.94510 | -77.83243 | 37655 ft | 521 kts | 128° |
| 2026-04-26 14:31 | 24.92371 | -77.80013 | 37936 ft | 523 kts | 129° |
| 2026-04-26 14:32 | 24.90227 | -77.76761 | 38167 ft | 526 kts | 128° |
| 2026-04-26 14:32 | 24.88104 | -77.73474 | 38381 ft | 530 kts | 128° |
| 2026-04-26 14:32 | 24.85960 | -77.70159 | 38603 ft | 533 kts | 128° |
| 2026-04-26 14:33 | 24.81617 | -77.63550 | 38678 ft | 534 kts | 128° |
| 2026-04-26 14:33 | 24.79437 | -77.60214 | 38849 ft | 537 kts | 128° |
| 2026-04-26 14:33 | 24.77269 | -77.56884 | 38944 ft | 539 kts | 128° |
| 2026-04-26 14:33 | 24.75122 | -77.53458 | 39121 ft | 543 kts | 124° |
| 2026-04-26 14:34 | 24.73321 | -77.49802 | 39314 ft | 546 kts | 118° |
| 2026-04-26 14:34 | 24.71686 | -77.46033 | 39443 ft | 546 kts | 117° |
| 2026-04-26 14:34 | 24.70048 | -77.42268 | 39445 ft | 547 kts | 118° |
| 2026-04-26 14:35 | 24.66531 | -77.34820 | 39669 ft | 550 kts | 119° |
| 2026-04-26 14:35 | 24.64820 | -77.31040 | 39778 ft | 552 kts | 118° |
| 2026-04-26 14:35 | 24.63130 | -77.27232 | 39775 ft | 553 kts | 118° |
| 2026-04-26 14:36 | 24.59634 | -77.19706 | 39980 ft | 555 kts | 119° |
| 2026-04-26 14:36 | 24.56172 | -77.12118 | 40040 ft | 554 kts | 118° |
| 2026-04-26 14:37 | 24.52676 | -77.04544 | 40067 ft | 558 kts | 119° |
| 2026-04-26 14:37 | 24.49198 | -76.96994 | 40153 ft | 559 kts | 118° |
| 2026-04-26 14:37 | 24.47425 | -76.93132 | 40263 ft | 559 kts | 119° |
| 2026-04-26 14:38 | 24.45661 | -76.89327 | 40350 ft | 560 kts | 119° |
| 2026-04-26 14:38 | 24.42132 | -76.81705 | 40389 ft | 562 kts | 119° |
| 2026-04-26 14:39 | 24.38620 | -76.74113 | 40539 ft | 563 kts | 119° |
| 2026-04-26 14:39 | 24.35057 | -76.66441 | 40679 ft | 560 kts | 119° |
| 2026-04-26 14:39 | 24.33324 | -76.62697 | 41541 ft | 544 kts | 119° |
| 2026-04-26 14:40 | 24.31603 | -76.58996 | 41569 ft | 549 kts | 120° |
| 2026-04-26 14:40 | 24.29853 | -76.55253 | 41690 ft | 552 kts | 120° |
| 2026-04-26 14:40 | 24.28113 | -76.51517 | 41845 ft | 553 kts | 120° |
| 2026-04-26 14:40 | 24.26368 | -76.47759 | 41964 ft | 555 kts | 120° |
| 2026-04-26 14:41 | 24.24614 | -76.43996 | 41987 ft | 555 kts | 120° |
| 2026-04-26 14:41 | 24.22850 | -76.40224 | 42107 ft | 556 kts | 120° |
| 2026-04-26 14:41 | 24.21077 | -76.36432 | 42164 ft | 558 kts | 120° |
| 2026-04-26 14:41 | 24.19311 | -76.32650 | 42305 ft | 559 kts | 120° |
| 2026-04-26 14:42 | 24.17533 | -76.28847 | 42386 ft | 559 kts | 120° |
| 2026-04-26 14:42 | 24.13970 | -76.21247 | 42534 ft | 562 kts | 120° |
| 2026-04-26 14:42 | 24.12185 | -76.17441 | 42651 ft | 563 kts | 120° |
| 2026-04-26 14:43 | 24.10394 | -76.13622 | 42733 ft | 565 kts | 120° |
| 2026-04-26 14:43 | 24.06801 | -76.05976 | 42812 ft | 566 kts | 120° |
| 2026-04-26 14:44 | 24.03182 | -75.98291 | 42980 ft | 567 kts | 120° |
| 2026-04-26 14:44 | 23.99570 | -75.90628 | 42977 ft | 566 kts | 120° |
| 2026-04-26 14:45 | 23.95953 | -75.82973 | 42977 ft | 568 kts | 121° |
| 2026-04-26 14:45 | 23.92329 | -75.75310 | 43070 ft | 569 kts | 121° |
| 2026-04-26 14:46 | 23.88684 | -75.67618 | 43197 ft | 571 kts | 121° |
| 2026-04-26 14:46 | 23.85027 | -75.59908 | 43246 ft | 570 kts | 121° |
| 2026-04-26 14:47 | 23.81379 | -75.52235 | 43242 ft | 569 kts | 121° |
| 2026-04-26 14:47 | 23.77734 | -75.44578 | 43237 ft | 567 kts | 121° |
| 2026-04-26 14:48 | 23.74079 | -75.36917 | 43234 ft | 569 kts | 121° |
| 2026-04-26 14:48 | 23.72257 | -75.33097 | 43527 ft | 563 kts | 121° |
| 2026-04-26 14:48 | 23.70478 | -75.29364 | 44042 ft | 553 kts | 121° |
| 2026-04-26 14:49 | 23.66919 | -75.21940 | 44018 ft | 551 kts | 122° |
| 2026-04-26 14:49 | 23.63371 | -75.14526 | 44051 ft | 549 kts | 122° |
| 2026-04-26 14:49 | 23.61614 | -75.10849 | 44198 ft | 546 kts | 122° |
| 2026-04-26 14:50 | 23.59854 | -75.07178 | 44414 ft | 545 kts | 122° |
| 2026-04-26 14:50 | 23.58113 | -75.03581 | 44616 ft | 545 kts | 122° |
| 2026-04-26 14:50 | 23.56357 | -74.99935 | 44807 ft | 541 kts | 122° |
| 2026-04-26 14:50 | 23.54621 | -74.96310 | 44976 ft | 539 kts | 121° |
| 2026-04-26 14:51 | 23.52881 | -74.92688 | 44979 ft | 540 kts | 122° |
| 2026-04-26 14:51 | 23.49363 | -74.85409 | 45017 ft | 546 kts | 122° |
| 2026-04-26 14:52 | 23.45809 | -74.78034 | 45025 ft | 550 kts | 121° |
| 2026-04-26 14:52 | 23.42231 | -74.70638 | 45025 ft | 551 kts | 122° |
| 2026-04-26 14:53 | 23.38643 | -74.63226 | 45025 ft | 556 kts | 122° |
| 2026-04-26 14:53 | 23.35029 | -74.55771 | 45023 ft | 558 kts | 122° |
| 2026-04-26 14:54 | 23.31425 | -74.48350 | 45023 ft | 557 kts | 122° |
| 2026-04-26 14:54 | 23.27778 | -74.40853 | 45022 ft | 557 kts | 122° |
| 2026-04-26 14:55 | 23.24184 | -74.33474 | 45019 ft | 556 kts | 122° |
| 2026-04-26 14:55 | 23.20569 | -74.26063 | 45016 ft | 554 kts | 122° |
| 2026-04-26 14:56 | 23.16943 | -74.18646 | 45027 ft | 556 kts | 122° |
| 2026-04-26 14:56 | 23.13330 | -74.11257 | 45010 ft | 553 kts | 122° |
| 2026-04-26 14:57 | 23.09713 | -74.03879 | 45008 ft | 551 kts | 122° |
| 2026-04-26 14:57 | 23.06113 | -73.96542 | 45005 ft | 550 kts | 122° |
| 2026-04-26 14:58 | 23.02487 | -73.89171 | 45008 ft | 557 kts | 122° |
| 2026-04-26 14:58 | 22.98810 | -73.81695 | 45016 ft | 562 kts | 122° |
| 2026-04-26 14:59 | 22.95141 | -73.74248 | 45011 ft | 557 kts | 123° |
| 2026-04-26 14:59 | 22.91497 | -73.66869 | 45000 ft | 552 kts | 123° |
| 2026-04-26 15:00 | 22.87870 | -73.59536 | 45004 ft | 553 kts | 123° |
| 2026-04-26 15:00 | 22.84206 | -73.52140 | 45014 ft | 560 kts | 123° |
| 2026-04-26 15:01 | 22.80528 | -73.44715 | 45015 ft | 558 kts | 123° |
| 2026-04-26 15:01 | 22.76856 | -73.37326 | 45012 ft | 556 kts | 123° |
| 2026-04-26 15:02 | 22.73212 | -73.29996 | 45010 ft | 556 kts | 123° |
| 2026-04-26 15:02 | 22.69538 | -73.22622 | 45000 ft | 557 kts | 123° |
| 2026-04-26 15:03 | 22.65871 | -73.15264 | 45002 ft | 554 kts | 123° |
| 2026-04-26 15:03 | 22.62191 | -73.07907 | 45004 ft | 558 kts | 123° |
| 2026-04-26 15:04 | 22.58506 | -73.00528 | 45003 ft | 556 kts | 123° |
| 2026-04-26 15:04 | 22.54838 | -72.93212 | 44998 ft | 551 kts | 123° |
| 2026-04-26 15:05 | 22.51153 | -72.85871 | 45003 ft | 557 kts | 123° |
| 2026-04-26 15:05 | 22.47464 | -72.78519 | 45003 ft | 555 kts | 124° |
| 2026-04-26 15:06 | 22.43765 | -72.71177 | 45007 ft | 558 kts | 124° |
| 2026-04-26 15:06 | 22.40050 | -72.63796 | 45004 ft | 559 kts | 124° |
| 2026-04-26 15:07 | 22.34493 | -72.52794 | 45008 ft | 558 kts | 124° |
| 2026-04-26 15:07 | 22.30802 | -72.45477 | 45005 ft | 557 kts | 124° |